sensor_id;sensor_type;location;lat;lon;timestamp;P1;durP1;ratioP1;P2;durP2;ratioP2
12476;SDS011;6303;51.504;6.300;2022-11-15T00:01:06;3.60;;;3.30;;
12476;SDS011;6303;51.504;6.300;2022-11-15T00:03:52;3.97;;;3.33;;
12476;SDS011;6303;51.504;6.300;2022-11-15T00:06:38;4.28;;;3.47;;
12476;SDS011;6303;51.504;6.300;2022-11-15T00:09:23;4.03;;;3.63;;
12476;SDS011;6303;51.504;6.300;2022-11-15T00:12:09;3.35;;;3.05;;
12476;SDS011;6303;51.504;6.300;2022-11-15T00:14:56;3.50;;;3.20;;
12476;SDS011;6303;51.504;6.300;2022-11-15T00:17:41;3.63;;;3.33;;
12476;SDS011;6303;51.504;6.300;2022-11-15T00:20:27;3.30;;;3.00;;
12476;SDS011;6303;51.504;6.300;2022-11-15T00:23:13;3.55;;;3.25;;
12476;SDS011;6303;51.504;6.300;2022-11-15T00:25:59;3.47;;;3.17;;
12476;SDS011;6303;51.504;6.300;2022-11-15T00:28:45;3.15;;;2.88;;
12476;SDS011;6303;51.504;6.300;2022-11-15T00:31:32;3.42;;;3.13;;
12476;SDS011;6303;51.504;6.300;2022-11-15T00:34:18;3.13;;;2.83;;
12476;SDS011;6303;51.504;6.300;2022-11-15T00:37:03;3.83;;;3.05;;
12476;SDS011;6303;51.504;6.300;2022-11-15T00:39:50;3.20;;;3.00;;
12476;SDS011;6303;51.504;6.300;2022-11-15T00:42:36;3.25;;;3.00;;
12476;SDS011;6303;51.504;6.300;2022-11-15T00:45:21;3.38;;;3.10;;
12476;SDS011;6303;51.504;6.300;2022-11-15T00:48:08;3.45;;;3.17;;
12476;SDS011;6303;51.504;6.300;2022-11-15T00:50:54;3.30;;;3.00;;
12476;SDS011;6303;51.504;6.300;2022-11-15T00:53:40;3.30;;;3.00;;
12476;SDS011;6303;51.504;6.300;2022-11-15T00:56:25;3.13;;;2.83;;
12476;SDS011;6303;51.504;6.300;2022-11-15T00:59:11;3.42;;;3.13;;
12476;SDS011;6303;51.504;6.300;2022-11-15T01:01:56;3.60;;;3.30;;
12476;SDS011;6303;51.504;6.300;2022-11-15T01:04:43;3.22;;;3.03;;
12476;SDS011;6303;51.504;6.300;2022-11-15T01:07:29;3.05;;;2.85;;
12476;SDS011;6303;51.504;6.300;2022-11-15T01:10:15;3.28;;;2.97;;
12476;SDS011;6303;51.504;6.300;2022-11-15T01:13:00;3.65;;;3.13;;
12476;SDS011;6303;51.504;6.300;2022-11-15T01:15:46;3.30;;;3.00;;
12476;SDS011;6303;51.504;6.300;2022-11-15T01:18:31;3.33;;;3.03;;
12476;SDS011;6303;51.504;6.300;2022-11-15T01:21:18;3.25;;;3.00;;
12476;SDS011;6303;51.504;6.300;2022-11-15T01:24:04;3.38;;;3.08;;
12476;SDS011;6303;51.504;6.300;2022-11-15T01:26:50;3.33;;;3.03;;
12476;SDS011;6303;51.504;6.300;2022-11-15T01:29:36;3.10;;;2.90;;
12476;SDS011;6303;51.504;6.300;2022-11-15T01:32:21;3.42;;;3.13;;
12476;SDS011;6303;51.504;6.300;2022-11-15T01:35:07;3.00;;;2.78;;
12476;SDS011;6303;51.504;6.300;2022-11-15T01:37:54;3.33;;;3.03;;
12476;SDS011;6303;51.504;6.300;2022-11-15T01:40:39;3.58;;;3.28;;
12476;SDS011;6303;51.504;6.300;2022-11-15T01:43:26;2.90;;;2.70;;
12476;SDS011;6303;51.504;6.300;2022-11-15T01:46:18;3.15;;;2.88;;
12476;SDS011;6303;51.504;6.300;2022-11-15T01:49:11;3.05;;;2.75;;
12476;SDS011;6303;51.504;6.300;2022-11-15T01:52:01;3.60;;;3.15;;
12476;SDS011;6303;51.504;6.300;2022-11-15T01:54:53;3.25;;;3.03;;
12476;SDS011;6303;51.504;6.300;2022-11-15T01:57:42;3.20;;;2.90;;
12476;SDS011;6303;51.504;6.300;2022-11-15T02:00:29;3.20;;;2.90;;
12476;SDS011;6303;51.504;6.300;2022-11-15T02:03:15;3.67;;;3.17;;
12476;SDS011;6303;51.504;6.300;2022-11-15T02:06:00;3.85;;;2.88;;
12476;SDS011;6303;51.504;6.300;2022-11-15T02:08:48;2.88;;;2.67;;
12476;SDS011;6303;51.504;6.300;2022-11-15T02:11:36;3.03;;;2.83;;
12476;SDS011;6303;51.504;6.300;2022-11-15T02:14:22;3.05;;;2.80;;
12476;SDS011;6303;51.504;6.300;2022-11-15T02:17:21;3.00;;;2.80;;
12476;SDS011;6303;51.504;6.300;2022-11-15T02:20:27;3.30;;;3.00;;
12476;SDS011;6303;51.504;6.300;2022-11-15T02:27:01;3.20;;;2.90;;
12476;SDS011;6303;51.504;6.300;2022-11-15T02:30:24;2.90;;;2.70;;
12476;SDS011;6303;51.504;6.300;2022-11-15T02:33:24;3.22;;;2.88;;
12476;SDS011;6303;51.504;6.300;2022-11-15T02:36:18;2.95;;;2.75;;
12476;SDS011;6303;51.504;6.300;2022-11-15T02:39:15;2.72;;;2.53;;
12476;SDS011;6303;51.504;6.300;2022-11-15T02:42:07;3.08;;;2.88;;
12476;SDS011;6303;51.504;6.300;2022-11-15T02:45:13;3.25;;;2.95;;
12476;SDS011;6303;51.504;6.300;2022-11-15T02:48:07;3.25;;;2.90;;
12476;SDS011;6303;51.504;6.300;2022-11-15T02:50:55;3.25;;;2.95;;
12476;SDS011;6303;51.504;6.300;2022-11-15T02:53:41;2.90;;;2.67;;
12476;SDS011;6303;51.504;6.300;2022-11-15T02:56:26;2.95;;;2.65;;
12476;SDS011;6303;51.504;6.300;2022-11-15T03:02:41;2.80;;;2.60;;
12476;SDS011;6303;51.504;6.300;2022-11-15T03:05:40;3.40;;;3.10;;
12476;SDS011;6303;51.504;6.300;2022-11-15T03:08:32;2.85;;;2.65;;
12476;SDS011;6303;51.504;6.300;2022-11-15T03:11:35;3.13;;;2.85;;
12476;SDS011;6303;51.504;6.300;2022-11-15T03:14:27;3.20;;;3.00;;
12476;SDS011;6303;51.504;6.300;2022-11-15T03:17:18;3.00;;;2.80;;
12476;SDS011;6303;51.504;6.300;2022-11-15T03:20:10;3.03;;;2.78;;
12476;SDS011;6303;51.504;6.300;2022-11-15T03:23:00;3.10;;;2.80;;
12476;SDS011;6303;51.504;6.300;2022-11-15T03:25:51;3.15;;;2.88;;
12476;SDS011;6303;51.504;6.300;2022-11-15T03:28:38;2.70;;;2.50;;
12476;SDS011;6303;51.504;6.300;2022-11-15T03:31:30;3.20;;;2.90;;
12476;SDS011;6303;51.504;6.300;2022-11-15T03:34:31;3.15;;;2.70;;
12476;SDS011;6303;51.504;6.300;2022-11-15T03:37:21;3.10;;;2.80;;
12476;SDS011;6303;51.504;6.300;2022-11-15T03:40:11;2.67;;;2.47;;
12476;SDS011;6303;51.504;6.300;2022-11-15T03:42:59;2.88;;;2.67;;
12476;SDS011;6303;51.504;6.300;2022-11-15T03:45:50;3.03;;;2.72;;
12476;SDS011;6303;51.504;6.300;2022-11-15T03:48:39;2.90;;;2.70;;
12476;SDS011;6303;51.504;6.300;2022-11-15T03:51:28;3.03;;;2.83;;
12476;SDS011;6303;51.504;6.300;2022-11-15T03:54:15;2.70;;;2.50;;
12476;SDS011;6303;51.504;6.300;2022-11-15T03:57:02;2.88;;;2.67;;
12476;SDS011;6303;51.504;6.300;2022-11-15T03:59:47;3.17;;;2.80;;
12476;SDS011;6303;51.504;6.300;2022-11-15T04:02:33;2.80;;;2.60;;
12476;SDS011;6303;51.504;6.300;2022-11-15T04:05:18;3.05;;;2.85;;
12476;SDS011;6303;51.504;6.300;2022-11-15T04:08:04;3.13;;;2.90;;
12476;SDS011;6303;51.504;6.300;2022-11-15T04:10:49;2.83;;;2.60;;
12476;SDS011;6303;51.504;6.300;2022-11-15T04:13:37;3.72;;;2.90;;
12476;SDS011;6303;51.504;6.300;2022-11-15T04:16:22;2.70;;;2.50;;
12476;SDS011;6303;51.504;6.300;2022-11-15T04:19:08;2.83;;;2.63;;
12476;SDS011;6303;51.504;6.300;2022-11-15T04:22:11;2.60;;;2.40;;
12476;SDS011;6303;51.504;6.300;2022-11-15T04:25:14;3.10;;;2.80;;
12476;SDS011;6303;51.504;6.300;2022-11-15T04:28:00;3.10;;;2.85;;
12476;SDS011;6303;51.504;6.300;2022-11-15T04:30:47;2.60;;;2.40;;
12476;SDS011;6303;51.504;6.300;2022-11-15T04:33:32;2.63;;;2.42;;
12476;SDS011;6303;51.504;6.300;2022-11-15T04:36:18;2.65;;;2.45;;
12476;SDS011;6303;51.504;6.300;2022-11-15T04:39:22;2.70;;;2.50;;
12476;SDS011;6303;51.504;6.300;2022-11-15T04:42:07;2.83;;;2.55;;
12476;SDS011;6303;51.504;6.300;2022-11-15T04:44:53;2.80;;;2.60;;
12476;SDS011;6303;51.504;6.300;2022-11-15T04:47:41;2.80;;;2.60;;
12476;SDS011;6303;51.504;6.300;2022-11-15T04:50:28;2.70;;;2.50;;
12476;SDS011;6303;51.504;6.300;2022-11-15T04:53:14;2.65;;;2.42;;
12476;SDS011;6303;51.504;6.300;2022-11-15T04:55:59;2.75;;;2.50;;
12476;SDS011;6303;51.504;6.300;2022-11-15T04:58:45;2.30;;;2.20;;
12476;SDS011;6303;51.504;6.300;2022-11-15T05:01:33;2.60;;;2.40;;
12476;SDS011;6303;51.504;6.300;2022-11-15T05:04:20;2.90;;;2.60;;
12476;SDS011;6303;51.504;6.300;2022-11-15T05:07:04;2.60;;;2.40;;
12476;SDS011;6303;51.504;6.300;2022-11-15T05:09:50;2.78;;;2.58;;
12476;SDS011;6303;51.504;6.300;2022-11-15T05:12:36;2.88;;;2.67;;
12476;SDS011;6303;51.504;6.300;2022-11-15T05:15:22;2.72;;;2.50;;
12476;SDS011;6303;51.504;6.300;2022-11-15T05:18:07;2.75;;;2.55;;
12476;SDS011;6303;51.504;6.300;2022-11-15T05:20:54;2.65;;;2.45;;
12476;SDS011;6303;51.504;6.300;2022-11-15T05:23:40;2.40;;;2.20;;
12476;SDS011;6303;51.504;6.300;2022-11-15T05:26:26;2.63;;;2.42;;
12476;SDS011;6303;51.504;6.300;2022-11-15T05:29:12;2.60;;;2.40;;
12476;SDS011;6303;51.504;6.300;2022-11-15T05:31:58;2.47;;;2.28;;
12476;SDS011;6303;51.504;6.300;2022-11-15T05:34:44;2.78;;;2.53;;
12476;SDS011;6303;51.504;6.300;2022-11-15T05:37:32;2.70;;;2.50;;
12476;SDS011;6303;51.504;6.300;2022-11-15T05:40:17;2.65;;;2.40;;
12476;SDS011;6303;51.504;6.300;2022-11-15T05:43:03;2.92;;;2.30;;
12476;SDS011;6303;51.504;6.300;2022-11-15T05:45:49;2.65;;;2.45;;
12476;SDS011;6303;51.504;6.300;2022-11-15T05:48:36;2.38;;;2.25;;
12476;SDS011;6303;51.504;6.300;2022-11-15T05:51:25;2.65;;;2.20;;
12476;SDS011;6303;51.504;6.300;2022-11-15T05:54:14;2.55;;;2.35;;
12476;SDS011;6303;51.504;6.300;2022-11-15T05:57:02;2.78;;;2.40;;
12476;SDS011;6303;51.504;6.300;2022-11-15T05:59:49;2.67;;;2.47;;
12476;SDS011;6303;51.504;6.300;2022-11-15T06:02:35;2.28;;;2.08;;
12476;SDS011;6303;51.504;6.300;2022-11-15T06:05:20;2.60;;;2.40;;
12476;SDS011;6303;51.504;6.300;2022-11-15T06:08:06;2.47;;;2.28;;
12476;SDS011;6303;51.504;6.300;2022-11-15T06:10:53;2.45;;;2.10;;
12476;SDS011;6303;51.504;6.300;2022-11-15T06:13:39;2.58;;;2.28;;
12476;SDS011;6303;51.504;6.300;2022-11-15T06:16:24;2.20;;;2.05;;
12476;SDS011;6303;51.504;6.300;2022-11-15T06:19:10;2.40;;;2.20;;
12476;SDS011;6303;51.504;6.300;2022-11-15T06:21:56;2.60;;;2.40;;
12476;SDS011;6303;51.504;6.300;2022-11-15T06:24:42;2.50;;;2.30;;
12476;SDS011;6303;51.504;6.300;2022-11-15T06:27:28;4.22;;;2.33;;
12476;SDS011;6303;51.504;6.300;2022-11-15T06:30:14;2.60;;;2.40;;
12476;SDS011;6303;51.504;6.300;2022-11-15T06:33:00;3.67;;;2.30;;
12476;SDS011;6303;51.504;6.300;2022-11-15T06:35:46;2.92;;;2.30;;
12476;SDS011;6303;51.504;6.300;2022-11-15T06:38:32;4.18;;;2.53;;
12476;SDS011;6303;51.504;6.300;2022-11-15T06:41:17;9.88;;;4.22;;
12476;SDS011;6303;51.504;6.300;2022-11-15T06:44:06;13.27;;;5.20;;
12476;SDS011;6303;51.504;6.300;2022-11-15T06:46:52;15.20;;;5.00;;
12476;SDS011;6303;51.504;6.300;2022-11-15T06:49:37;17.35;;;5.40;;
12476;SDS011;6303;51.504;6.300;2022-11-15T06:52:23;19.17;;;5.65;;
12476;SDS011;6303;51.504;6.300;2022-11-15T06:55:09;20.23;;;5.28;;
12476;SDS011;6303;51.504;6.300;2022-11-15T06:57:54;18.77;;;6.35;;
12476;SDS011;6303;51.504;6.300;2022-11-15T07:00:41;20.75;;;5.22;;
12476;SDS011;6303;51.504;6.300;2022-11-15T07:03:27;13.75;;;4.53;;
12476;SDS011;6303;51.504;6.300;2022-11-15T07:06:13;18.48;;;4.72;;
12476;SDS011;6303;51.504;6.300;2022-11-15T07:08:59;14.98;;;4.60;;
12476;SDS011;6303;51.504;6.300;2022-11-15T07:11:46;12.70;;;4.25;;
12476;SDS011;6303;51.504;6.300;2022-11-15T07:14:32;16.23;;;4.97;;
12476;SDS011;6303;51.504;6.300;2022-11-15T07:17:18;13.95;;;4.20;;
12476;SDS011;6303;51.504;6.300;2022-11-15T07:20:04;14.23;;;4.53;;
12476;SDS011;6303;51.504;6.300;2022-11-15T07:22:50;11.98;;;3.78;;
12476;SDS011;6303;51.504;6.300;2022-11-15T07:25:36;12.25;;;4.10;;
12476;SDS011;6303;51.504;6.300;2022-11-15T07:28:22;10.43;;;4.00;;
12476;SDS011;6303;51.504;6.300;2022-11-15T07:31:08;9.50;;;3.45;;
12476;SDS011;6303;51.504;6.300;2022-11-15T07:33:56;10.25;;;3.30;;
12476;SDS011;6303;51.504;6.300;2022-11-15T07:36:42;11.07;;;4.20;;
12476;SDS011;6303;51.504;6.300;2022-11-15T07:39:27;10.90;;;4.03;;
12476;SDS011;6303;51.504;6.300;2022-11-15T07:42:13;8.02;;;4.13;;
12476;SDS011;6303;51.504;6.300;2022-11-15T07:45:17;11.70;;;3.65;;
12476;SDS011;6303;51.504;6.300;2022-11-15T07:48:02;7.40;;;3.40;;
12476;SDS011;6303;51.504;6.300;2022-11-15T07:50:50;8.82;;;3.85;;
12476;SDS011;6303;51.504;6.300;2022-11-15T07:53:35;10.55;;;3.88;;
12476;SDS011;6303;51.504;6.300;2022-11-15T07:56:21;11.38;;;3.85;;
12476;SDS011;6303;51.504;6.300;2022-11-15T07:59:06;11.07;;;3.30;;
12476;SDS011;6303;51.504;6.300;2022-11-15T08:01:52;8.98;;;3.10;;
12476;SDS011;6303;51.504;6.300;2022-11-15T08:04:37;6.57;;;3.17;;
12476;SDS011;6303;51.504;6.300;2022-11-15T08:07:24;8.05;;;3.03;;
12476;SDS011;6303;51.504;6.300;2022-11-15T08:10:13;7.53;;;3.25;;
12476;SDS011;6303;51.504;6.300;2022-11-15T08:13:03;5.78;;;2.70;;
12476;SDS011;6303;51.504;6.300;2022-11-15T08:15:49;8.10;;;2.72;;
12476;SDS011;6303;51.504;6.300;2022-11-15T08:18:35;7.68;;;2.60;;
12476;SDS011;6303;51.504;6.300;2022-11-15T08:21:21;7.90;;;3.38;;
12476;SDS011;6303;51.504;6.300;2022-11-15T08:24:09;7.35;;;2.95;;
12476;SDS011;6303;51.504;6.300;2022-11-15T08:26:55;7.25;;;3.17;;
12476;SDS011;6303;51.504;6.300;2022-11-15T08:29:42;5.43;;;2.50;;
12476;SDS011;6303;51.504;6.300;2022-11-15T08:32:27;4.82;;;2.50;;
12476;SDS011;6303;51.504;6.300;2022-11-15T08:35:13;4.93;;;2.63;;
12476;SDS011;6303;51.504;6.300;2022-11-15T08:37:59;6.20;;;2.78;;
12476;SDS011;6303;51.504;6.300;2022-11-15T08:40:46;4.78;;;2.70;;
12476;SDS011;6303;51.504;6.300;2022-11-15T08:43:31;4.90;;;2.45;;
12476;SDS011;6303;51.504;6.300;2022-11-15T08:46:17;3.60;;;2.60;;
12476;SDS011;6303;51.504;6.300;2022-11-15T08:49:03;5.68;;;2.50;;
12476;SDS011;6303;51.504;6.300;2022-11-15T08:51:49;6.85;;;2.42;;
12476;SDS011;6303;51.504;6.300;2022-11-15T08:54:34;5.95;;;2.35;;
12476;SDS011;6303;51.504;6.300;2022-11-15T08:57:21;6.22;;;2.70;;
12476;SDS011;6303;51.504;6.300;2022-11-15T09:00:07;5.15;;;2.30;;
12476;SDS011;6303;51.504;6.300;2022-11-15T09:02:55;5.80;;;2.38;;
12476;SDS011;6303;51.504;6.300;2022-11-15T09:05:40;5.22;;;2.10;;
12476;SDS011;6303;51.504;6.300;2022-11-15T09:08:29;4.97;;;2.13;;
12476;SDS011;6303;51.504;6.300;2022-11-15T09:11:15;5.20;;;2.20;;
12476;SDS011;6303;51.504;6.300;2022-11-15T09:14:05;4.07;;;2.00;;
12476;SDS011;6303;51.504;6.300;2022-11-15T09:16:50;4.53;;;2.08;;
12476;SDS011;6303;51.504;6.300;2022-11-15T09:19:36;5.07;;;2.25;;
12476;SDS011;6303;51.504;6.300;2022-11-15T09:22:21;4.47;;;2.10;;
12476;SDS011;6303;51.504;6.300;2022-11-15T09:25:08;3.50;;;2.22;;
12476;SDS011;6303;51.504;6.300;2022-11-15T09:27:54;2.83;;;1.83;;
12476;SDS011;6303;51.504;6.300;2022-11-15T09:30:41;4.78;;;2.10;;
12476;SDS011;6303;51.504;6.300;2022-11-15T09:33:27;2.80;;;2.15;;
12476;SDS011;6303;51.504;6.300;2022-11-15T09:36:12;3.05;;;2.15;;
12476;SDS011;6303;51.504;6.300;2022-11-15T09:38:58;3.88;;;1.95;;
12476;SDS011;6303;51.504;6.300;2022-11-15T09:45:05;4.30;;;2.00;;
12476;SDS011;6303;51.504;6.300;2022-11-15T09:48:11;4.90;;;1.92;;
12476;SDS011;6303;51.504;6.300;2022-11-15T09:51:21;1.98;;;1.75;;
12476;SDS011;6303;51.504;6.300;2022-11-15T09:53:54;4.38;;;2.10;;
12476;SDS011;6303;51.504;6.300;2022-11-15T09:56:27;3.70;;;2.03;;
12476;SDS011;6303;51.504;6.300;2022-11-15T09:58:58;3.75;;;1.92;;
12476;SDS011;6303;51.504;6.300;2022-11-15T10:01:35;2.00;;;1.55;;
12476;SDS011;6303;51.504;6.300;2022-11-15T10:04:09;4.07;;;2.13;;
12476;SDS011;6303;51.504;6.300;2022-11-15T10:06:37;2.45;;;1.90;;
12476;SDS011;6303;51.504;6.300;2022-11-15T10:09:12;3.67;;;1.73;;
12476;SDS011;6303;51.504;6.300;2022-11-15T10:11:43;3.70;;;1.73;;
12476;SDS011;6303;51.504;6.300;2022-11-15T10:14:10;3.17;;;1.73;;
12476;SDS011;6303;51.504;6.300;2022-11-15T10:16:54;2.95;;;1.73;;
12476;SDS011;6303;51.504;6.300;2022-11-15T10:19:38;2.45;;;1.60;;
12476;SDS011;6303;51.504;6.300;2022-11-15T10:22:26;2.28;;;1.60;;
12476;SDS011;6303;51.504;6.300;2022-11-15T10:25:00;2.53;;;1.52;;
12476;SDS011;6303;51.504;6.300;2022-11-15T10:27:41;2.88;;;1.73;;
12476;SDS011;6303;51.504;6.300;2022-11-15T10:30:10;3.47;;;1.50;;
12476;SDS011;6303;51.504;6.300;2022-11-15T10:32:39;2.55;;;1.90;;
12476;SDS011;6303;51.504;6.300;2022-11-15T10:35:25;2.78;;;1.63;;
12476;SDS011;6303;51.504;6.300;2022-11-15T10:38:03;3.72;;;1.70;;
12476;SDS011;6303;51.504;6.300;2022-11-15T10:40:32;2.13;;;1.50;;
12476;SDS011;6303;51.504;6.300;2022-11-15T10:43:12;2.80;;;1.60;;
12476;SDS011;6303;51.504;6.300;2022-11-15T10:45:41;2.47;;;1.60;;
12476;SDS011;6303;51.504;6.300;2022-11-15T10:48:19;2.90;;;1.70;;
12476;SDS011;6303;51.504;6.300;2022-11-15T10:50:52;2.03;;;1.50;;
12476;SDS011;6303;51.504;6.300;2022-11-15T10:53:22;2.33;;;1.52;;
12476;SDS011;6303;51.504;6.300;2022-11-15T10:55:59;2.35;;;1.58;;
12476;SDS011;6303;51.504;6.300;2022-11-15T10:58:34;3.05;;;1.40;;
12476;SDS011;6303;51.504;6.300;2022-11-15T11:01:13;1.77;;;1.50;;
12476;SDS011;6303;51.504;6.300;2022-11-15T11:03:43;2.22;;;1.60;;
12476;SDS011;6303;51.504;6.300;2022-11-15T11:06:13;3.92;;;2.15;;
12476;SDS011;6303;51.504;6.300;2022-11-15T11:08:52;4.57;;;2.05;;
12476;SDS011;6303;51.504;6.300;2022-11-15T11:11:21;6.45;;;2.17;;
12476;SDS011;6303;51.504;6.300;2022-11-15T11:13:48;5.75;;;2.45;;
12476;SDS011;6303;51.504;6.300;2022-11-15T11:19:13;6.30;;;1.98;;
12476;SDS011;6303;51.504;6.300;2022-11-15T11:21:53;5.57;;;2.25;;
12476;SDS011;6303;51.504;6.300;2022-11-15T11:24:29;4.93;;;2.20;;
12476;SDS011;6303;51.504;6.300;2022-11-15T11:27:09;5.40;;;2.20;;
12476;SDS011;6303;51.504;6.300;2022-11-15T11:29:49;5.10;;;2.53;;
12476;SDS011;6303;51.504;6.300;2022-11-15T11:32:31;5.28;;;2.30;;
12476;SDS011;6303;51.504;6.300;2022-11-15T11:35:15;4.65;;;2.65;;
12476;SDS011;6303;51.504;6.300;2022-11-15T11:37:49;5.88;;;2.25;;
12476;SDS011;6303;51.504;6.300;2022-11-15T11:40:24;3.50;;;1.80;;
12476;SDS011;6303;51.504;6.300;2022-11-15T11:42:58;5.85;;;2.30;;
12476;SDS011;6303;51.504;6.300;2022-11-15T11:45:39;4.60;;;1.90;;
12476;SDS011;6303;51.504;6.300;2022-11-15T11:48:30;5.57;;;2.20;;
12476;SDS011;6303;51.504;6.300;2022-11-15T11:51:08;3.67;;;1.77;;
12476;SDS011;6303;51.504;6.300;2022-11-15T11:53:42;4.18;;;1.98;;
12476;SDS011;6303;51.504;6.300;2022-11-15T11:56:22;6.72;;;1.77;;
12476;SDS011;6303;51.504;6.300;2022-11-15T11:58:53;3.88;;;1.80;;
12476;SDS011;6303;51.504;6.300;2022-11-15T12:01:22;5.25;;;2.20;;
12476;SDS011;6303;51.504;6.300;2022-11-15T12:03:52;5.80;;;2.20;;
12476;SDS011;6303;51.504;6.300;2022-11-15T12:06:25;3.22;;;1.85;;
12476;SDS011;6303;51.504;6.300;2022-11-15T12:09:00;4.72;;;1.77;;
12476;SDS011;6303;51.504;6.300;2022-11-15T12:11:32;2.60;;;1.60;;
12476;SDS011;6303;51.504;6.300;2022-11-15T12:14:08;3.30;;;1.85;;
12476;SDS011;6303;51.504;6.300;2022-11-15T12:16:39;3.80;;;2.00;;
12476;SDS011;6303;51.504;6.300;2022-11-15T12:19:08;5.13;;;2.00;;
12476;SDS011;6303;51.504;6.300;2022-11-15T12:21:39;3.40;;;1.80;;
12476;SDS011;6303;51.504;6.300;2022-11-15T12:24:14;2.85;;;1.60;;
12476;SDS011;6303;51.504;6.300;2022-11-15T12:26:46;1.95;;;1.50;;
12476;SDS011;6303;51.504;6.300;2022-11-15T12:29:19;3.10;;;1.83;;
12476;SDS011;6303;51.504;6.300;2022-11-15T12:31:53;5.03;;;1.85;;
12476;SDS011;6303;51.504;6.300;2022-11-15T12:34:41;1.88;;;1.60;;
12476;SDS011;6303;51.504;6.300;2022-11-15T12:40:34;2.33;;;1.48;;
12476;SDS011;6303;51.504;6.300;2022-11-15T12:43:04;4.18;;;1.75;;
12476;SDS011;6303;51.504;6.300;2022-11-15T12:45:46;1.90;;;1.65;;
12476;SDS011;6303;51.504;6.300;2022-11-15T12:51:16;2.72;;;1.60;;
12476;SDS011;6303;51.504;6.300;2022-11-15T12:53:45;2.75;;;1.50;;
12476;SDS011;6303;51.504;6.300;2022-11-15T12:56:23;3.47;;;1.73;;
12476;SDS011;6303;51.504;6.300;2022-11-15T12:58:55;5.15;;;1.52;;
12476;SDS011;6303;51.504;6.300;2022-11-15T13:04:27;2.97;;;1.50;;
12476;SDS011;6303;51.504;6.300;2022-11-15T13:06:58;3.30;;;1.50;;
12476;SDS011;6303;51.504;6.300;2022-11-15T13:15:35;2.42;;;1.60;;
12476;SDS011;6303;51.504;6.300;2022-11-15T13:21:18;2.35;;;1.70;;
12476;SDS011;6303;51.504;6.300;2022-11-15T13:24:10;1.80;;;1.40;;
12476;SDS011;6303;51.504;6.300;2022-11-15T13:26:40;2.63;;;1.55;;
12476;SDS011;6303;51.504;6.300;2022-11-15T13:29:18;2.60;;;1.50;;
12476;SDS011;6303;51.504;6.300;2022-11-15T13:31:46;2.22;;;1.60;;
12476;SDS011;6303;51.504;6.300;2022-11-15T13:34:15;2.17;;;1.35;;
12476;SDS011;6303;51.504;6.300;2022-11-15T13:36:48;2.75;;;1.48;;
12476;SDS011;6303;51.504;6.300;2022-11-15T13:39:23;2.05;;;1.35;;
12476;SDS011;6303;51.504;6.300;2022-11-15T13:41:53;2.30;;;1.52;;
12476;SDS011;6303;51.504;6.300;2022-11-15T13:44:23;1.48;;;1.30;;
12476;SDS011;6303;51.504;6.300;2022-11-15T13:47:02;1.30;;;1.20;;
12476;SDS011;6303;51.504;6.300;2022-11-15T13:49:30;2.33;;;1.48;;
12476;SDS011;6303;51.504;6.300;2022-11-15T13:51:58;2.47;;;1.30;;
12476;SDS011;6303;51.504;6.300;2022-11-15T13:54:28;1.23;;;1.13;;
12476;SDS011;6303;51.504;6.300;2022-11-15T13:56:59;2.97;;;1.38;;
12476;SDS011;6303;51.504;6.300;2022-11-15T13:59:33;2.05;;;1.30;;
12476;SDS011;6303;51.504;6.300;2022-11-15T14:02:03;2.00;;;1.40;;
12476;SDS011;6303;51.504;6.300;2022-11-15T14:04:45;2.08;;;1.23;;
12476;SDS011;6303;51.504;6.300;2022-11-15T14:07:16;1.42;;;1.33;;
12476;SDS011;6303;51.504;6.300;2022-11-15T14:09:45;1.58;;;1.23;;
12476;SDS011;6303;51.504;6.300;2022-11-15T14:12:22;1.75;;;1.25;;
12476;SDS011;6303;51.504;6.300;2022-11-15T14:14:57;1.45;;;1.10;;
12476;SDS011;6303;51.504;6.300;2022-11-15T14:17:37;2.42;;;1.50;;
12476;SDS011;6303;51.504;6.300;2022-11-15T14:20:26;1.90;;;1.30;;
12476;SDS011;6303;51.504;6.300;2022-11-15T14:22:57;2.88;;;1.40;;
12476;SDS011;6303;51.504;6.300;2022-11-15T14:25:26;1.10;;;1.00;;
12476;SDS011;6303;51.504;6.300;2022-11-15T14:28:13;3.03;;;1.30;;
12476;SDS011;6303;51.504;6.300;2022-11-15T14:30:57;1.95;;;1.30;;
12476;SDS011;6303;51.504;6.300;2022-11-15T14:33:26;2.40;;;1.25;;
12476;SDS011;6303;51.504;6.300;2022-11-15T14:35:55;1.50;;;1.20;;
12476;SDS011;6303;51.504;6.300;2022-11-15T14:38:24;2.58;;;1.40;;
12476;SDS011;6303;51.504;6.300;2022-11-15T14:40:51;1.70;;;1.20;;
12476;SDS011;6303;51.504;6.300;2022-11-15T14:43:20;2.20;;;1.38;;
12476;SDS011;6303;51.504;6.300;2022-11-15T14:45:47;1.33;;;1.20;;
12476;SDS011;6303;51.504;6.300;2022-11-15T14:48:16;1.60;;;1.27;;
12476;SDS011;6303;51.504;6.300;2022-11-15T14:50:43;1.13;;;1.00;;
12476;SDS011;6303;51.504;6.300;2022-11-15T14:53:11;2.35;;;1.20;;
12476;SDS011;6303;51.504;6.300;2022-11-15T14:55:41;1.25;;;1.00;;
12476;SDS011;6303;51.504;6.300;2022-11-15T14:58:08;1.35;;;1.25;;
12476;SDS011;6303;51.504;6.300;2022-11-15T15:00:35;1.05;;;1.00;;
12476;SDS011;6303;51.504;6.300;2022-11-15T15:03:03;1.48;;;1.20;;
12476;SDS011;6303;51.504;6.300;2022-11-15T15:05:33;1.33;;;1.20;;
12476;SDS011;6303;51.504;6.300;2022-11-15T15:08:02;1.40;;;1.00;;
12476;SDS011;6303;51.504;6.300;2022-11-15T15:10:30;1.27;;;1.17;;
12476;SDS011;6303;51.504;6.300;2022-11-15T15:12:59;1.20;;;1.10;;
12476;SDS011;6303;51.504;6.300;2022-11-15T15:15:27;3.10;;;1.20;;
12476;SDS011;6303;51.504;6.300;2022-11-15T15:17:58;1.23;;;1.13;;
12476;SDS011;6303;51.504;6.300;2022-11-15T15:20:25;1.35;;;1.25;;
12476;SDS011;6303;51.504;6.300;2022-11-15T15:22:53;1.23;;;1.13;;
12476;SDS011;6303;51.504;6.300;2022-11-15T15:25:21;2.55;;;1.17;;
12476;SDS011;6303;51.504;6.300;2022-11-15T15:27:52;1.08;;;1.05;;
12476;SDS011;6303;51.504;6.300;2022-11-15T15:30:19;2.05;;;1.20;;
12476;SDS011;6303;51.504;6.300;2022-11-15T15:32:47;1.73;;;1.30;;
12476;SDS011;6303;51.504;6.300;2022-11-15T15:35:14;1.52;;;1.10;;
12476;SDS011;6303;51.504;6.300;2022-11-15T15:37:42;1.92;;;0.98;;
12476;SDS011;6303;51.504;6.300;2022-11-15T15:40:13;3.10;;;1.15;;
12476;SDS011;6303;51.504;6.300;2022-11-15T15:42:42;1.20;;;1.10;;
12476;SDS011;6303;51.504;6.300;2022-11-15T15:45:09;1.15;;;1.00;;
12476;SDS011;6303;51.504;6.300;2022-11-15T15:47:37;1.85;;;1.20;;
12476;SDS011;6303;51.504;6.300;2022-11-15T15:50:05;1.55;;;1.02;;
12476;SDS011;6303;51.504;6.300;2022-11-15T15:52:43;1.15;;;1.02;;
12476;SDS011;6303;51.504;6.300;2022-11-15T15:55:10;1.95;;;1.10;;
12476;SDS011;6303;51.504;6.300;2022-11-15T15:57:40;1.02;;;1.00;;
12476;SDS011;6303;51.504;6.300;2022-11-15T16:00:08;1.90;;;1.20;;
12476;SDS011;6303;51.504;6.300;2022-11-15T16:02:39;1.20;;;1.10;;
12476;SDS011;6303;51.504;6.300;2022-11-15T16:05:06;1.30;;;1.20;;
12476;SDS011;6303;51.504;6.300;2022-11-15T16:07:33;1.17;;;1.08;;
12476;SDS011;6303;51.504;6.300;2022-11-15T16:10:02;1.70;;;1.10;;
12476;SDS011;6303;51.504;6.300;2022-11-15T16:12:39;2.10;;;1.30;;
12476;SDS011;6303;51.504;6.300;2022-11-15T16:15:07;1.83;;;1.23;;
12476;SDS011;6303;51.504;6.300;2022-11-15T16:17:38;1.30;;;1.20;;
12476;SDS011;6303;51.504;6.300;2022-11-15T16:20:08;1.10;;;1.00;;
12476;SDS011;6303;51.504;6.300;2022-11-15T16:22:49;2.35;;;1.20;;
12476;SDS011;6303;51.504;6.300;2022-11-15T16:25:16;2.20;;;1.10;;
12476;SDS011;6303;51.504;6.300;2022-11-15T16:27:44;1.23;;;1.13;;
12476;SDS011;6303;51.504;6.300;2022-11-15T16:30:12;1.10;;;1.00;;
12476;SDS011;6303;51.504;6.300;2022-11-15T16:32:42;1.30;;;1.20;;
12476;SDS011;6303;51.504;6.300;2022-11-15T16:35:10;1.42;;;1.20;;
12476;SDS011;6303;51.504;6.300;2022-11-15T16:37:38;1.40;;;1.20;;
12476;SDS011;6303;51.504;6.300;2022-11-15T16:40:09;1.50;;;1.40;;
12476;SDS011;6303;51.504;6.300;2022-11-15T16:42:46;1.25;;;1.15;;
12476;SDS011;6303;51.504;6.300;2022-11-15T16:45:13;1.30;;;1.20;;
12476;SDS011;6303;51.504;6.300;2022-11-15T16:47:40;1.23;;;1.13;;
12476;SDS011;6303;51.504;6.300;2022-11-15T16:50:09;1.10;;;1.00;;
12476;SDS011;6303;51.504;6.300;2022-11-15T16:52:48;1.23;;;1.10;;
12476;SDS011;6303;51.504;6.300;2022-11-15T16:55:16;1.25;;;1.10;;
12476;SDS011;6303;51.504;6.300;2022-11-15T16:57:43;1.33;;;1.17;;